Time;durP1;ratioP1;P1;durP2;ratioP2;P2;SDS_P1;SDS_P2;PMS_P1;PMS_P2;Temp;Humidity;BMP_temperature;BMP_pressure;BME280_temperature;BME280_humidity;BME280_pressure;Samples;Min_cycle;Max_cycle;Signal;HPM_P1;HPM_P2
2022/01/04 00:01:58;;;;;;;9.77;1.83;;;28.50;99.90;;;;;;5072056;28;20637;-69
2022/01/04 00:04:26;;;;;;;7.20;1.70;;;28.30;99.90;;;;;;5072173;28;20694;-70
2022/01/04 00:06:55;;;;;;;8.27;2.50;;;27.90;99.90;;;;;;5070177;28;20227;-69
2022/01/04 00:09:22;;;;;;;10.97;1.97;;;28.20;99.90;;;;;;5071973;28;20208;-70
2022/01/04 00:14:18;;;;;;;9.07;1.90;;;28.20;99.90;;;;;;5071466;28;20249;-69
2022/01/04 00:16:48;;;;;;;9.40;2.13;;;27.50;99.90;;;;;;5071974;28;20168;-68
2022/01/04 00:19:15;;;;;;;35.80;5.73;;;27.40;99.90;;;;;;5072108;28;20196;-68
2022/01/04 00:21:43;;;;;;;11.57;2.20;;;27.60;99.90;;;;;;5071665;28;20263;-68
2022/01/04 00:24:10;;;;;;;15.23;2.50;;;27.70;99.90;;;;;;5072079;28;20294;-71
2022/01/04 00:26:37;;;;;;;9.57;2.10;;;28.20;99.90;;;;;;5071027;28;20180;-68
2022/01/04 00:29:05;;;;;;;11.27;2.13;;;28.50;99.90;;;;;;5070682;28;20219;-70
2022/01/04 00:31:32;;;;;;;10.73;1.87;;;28.40;99.90;;;;;;5071216;28;20176;-68
2022/01/04 00:33:59;;;;;;;13.00;2.07;;;29.00;99.90;;;;;;5071857;28;20191;-69
2022/01/04 00:36:27;;;;;;;10.53;2.07;;;28.80;99.90;;;;;;5071501;28;20172;-69
2022/01/04 00:38:54;;;;;;;5.97;1.70;;;29.00;99.90;;;;;;5071662;28;20176;-68
2022/01/04 00:41:21;;;;;;;8.10;1.93;;;29.70;99.90;;;;;;5070434;28;20180;-68
2022/01/04 00:43:49;;;;;;;12.07;2.40;;;29.80;99.90;;;;;;5071214;28;20672;-70
2022/01/04 00:46:17;;;;;;;11.43;2.20;;;29.80;99.90;;;;;;5071722;28;20226;-68
2022/01/04 00:51:31;;;;;;;8.77;1.97;;;30.10;99.90;;;;;;5071979;28;20253;-68
2022/01/04 00:53:59;;;;;;;7.70;1.57;;;30.90;99.90;;;;;;5071335;28;20172;-68
2022/01/04 00:56:26;;;;;;;12.90;1.90;;;30.90;99.90;;;;;;5070230;28;20254;-67
2022/01/04 00:58:54;;;;;;;7.47;1.93;;;30.90;99.90;;;;;;5071463;28;20214;-68
2022/01/04 01:01:22;;;;;;;8.98;2.15;;;31.30;99.90;;;;;;5071601;28;20633;-68
2022/01/04 01:03:49;;;;;;;12.77;2.30;;;31.20;99.90;;;;;;5071597;28;20172;-69
2022/01/04 01:06:17;;;;;;;10.63;2.33;;;30.60;99.90;;;;;;5071386;28;20432;-68
2022/01/04 01:08:44;;;;;;;9.33;1.90;;;30.30;99.90;;;;;;5071294;28;20250;-68
2022/01/04 01:11:12;;;;;;;9.10;1.60;;;29.50;99.90;;;;;;5071433;28;20259;-68
2022/01/04 01:13:39;;;;;;;13.27;2.23;;;28.80;99.90;;;;;;5071379;28;20188;-68
2022/01/04 01:16:07;;;;;;;7.43;1.70;;;28.70;99.90;;;;;;5071195;28;20222;-68
2022/01/04 01:18:36;;;;;;;9.63;1.97;;;28.90;99.90;;;;;;5071265;28;20620;-66
2022/01/04 01:21:05;;;;;;;11.83;2.23;;;29.00;99.90;;;;;;5071425;28;20184;-67
2022/01/04 01:23:34;;;;;;;9.50;1.87;;;29.30;99.90;;;;;;5070147;28;20233;-67
2022/01/04 01:26:03;;;;;;;9.97;1.97;;;30.00;99.90;;;;;;5071347;28;20187;-68
2022/01/04 01:28:33;;;;;;;14.57;2.83;;;30.10;99.90;;;;;;5070744;28;20208;-67
2022/01/04 01:31:00;;;;;;;10.80;2.30;;;30.00;99.90;;;;;;5071151;28;20615;-67
2022/01/04 01:33:28;;;;;;;14.73;2.40;;;30.20;99.90;;;;;;5069920;28;20582;-67
2022/01/04 01:35:56;;;;;;;12.43;2.60;;;30.90;99.90;;;;;;5071263;28;20207;-67
2022/01/04 01:38:25;;;;;;;6.90;1.85;;;31.20;99.90;;;;;;5071698;28;20180;-67
2022/01/04 01:40:53;;;;;;;5.87;1.57;;;31.10;99.90;;;;;;5074851;28;20191;-67
2022/01/04 01:43:23;;;;;;;14.87;1.80;;;30.20;99.90;;;;;;5074925;28;20196;-67
2022/01/04 01:45:53;;;;;;;8.90;2.00;;;30.00;99.90;;;;;;5074591;28;20198;-67
2022/01/04 01:48:20;;;;;;;11.77;1.80;;;29.90;99.90;;;;;;5073323;28;20204;-67
2022/01/04 01:50:48;;;;;;;10.07;2.00;;;29.50;99.90;;;;;;5074298;28;20402;-68
2022/01/04 01:53:16;;;;;;;11.77;2.23;;;29.90;99.90;;;;;;5074733;28;20539;-68
2022/01/04 01:55:44;;;;;;;9.67;1.83;;;30.70;99.90;;;;;;5074712;28;20176;-67
2022/01/04 01:58:12;;;;;;;8.93;2.10;;;31.40;99.90;;;;;;5074695;28;20172;-69
2022/01/04 02:00:39;;;;;;;11.60;2.57;;;31.50;99.90;;;;;;5074110;28;20179;-68
2022/01/04 02:03:07;;;;;;;14.60;2.35;;;31.20;99.90;;;;;;5074562;28;20229;-68
2022/01/04 02:05:34;;;;;;;11.35;1.90;;;32.10;99.90;;;;;;5074387;28;20264;-69
2022/01/04 02:08:04;;;;;;;12.73;1.73;;;31.80;99.90;;;;;;5073958;28;20168;-68
2022/01/04 02:10:32;;;;;;;7.57;1.40;;;32.00;99.90;;;;;;5074275;28;20601;-68
2022/01/04 02:13:00;;;;;;;12.05;2.45;;;31.90;99.90;;;;;;5074033;28;20234;-68
2022/01/04 02:15:30;;;;;;;8.27;1.70;;;31.60;99.90;;;;;;5074361;28;20187;-68
2022/01/04 02:17:57;;;;;;;9.57;2.13;;;31.60;99.90;;;;;;5072922;28;20183;-69
2022/01/04 02:20:25;;;;;;;9.33;2.37;;;30.90;99.90;;;;;;5073696;28;20183;-69
2022/01/04 02:22:54;;;;;;;7.53;1.75;;;31.20;99.90;;;;;;5074158;28;20172;-69
2022/01/04 02:25:21;;;;;;;11.07;2.10;;;31.50;99.90;;;;;;5074115;28;20547;-69
2022/01/04 02:27:49;;;;;;;6.50;1.83;;;32.00;99.90;;;;;;5073850;28;20192;-69
2022/01/04 02:30:19;;;;;;;6.20;2.00;;;31.80;99.90;;;;;;5075424;28;20284;-68
2022/01/04 02:32:48;;;;;;;12.43;1.97;;;31.60;99.90;;;;;;5073834;28;20213;-68
2022/01/04 02:35:19;;;;;;;11.13;2.23;;;31.80;99.90;;;;;;5073774;28;20217;-68
2022/01/04 02:37:47;;;;;;;6.88;1.85;;;32.10;99.90;;;;;;5076097;28;20172;-68
2022/01/04 02:40:14;;;;;;;4.93;1.70;;;32.20;99.90;;;;;;5055198;28;20179;-69
2022/01/04 02:42:41;;;;;;;8.97;2.10;;;31.10;99.90;;;;;;5059698;28;20709;-68
2022/01/04 02:45:10;;;;;;;8.00;1.97;;;30.20;99.90;;;;;;5072979;28;20183;-68
2022/01/04 02:47:38;;;;;;;8.98;2.00;;;30.60;99.90;;;;;;5073614;28;20179;-70
2022/01/04 02:50:07;;;;;;;9.98;2.30;;;30.70;99.90;;;;;;5072530;28;20327;-70
2022/01/04 02:52:34;;;;;;;8.47;1.97;;;30.50;99.90;;;;;;5073498;28;20672;-70
2022/01/04 02:55:14;;;;;;;10.20;2.25;;;30.80;99.90;;;;;;5073677;28;20210;-69
2022/01/04 02:57:42;;;;;;;7.20;1.85;;;31.10;99.90;;;;;;5073527;28;20605;-68
2022/01/04 03:00:13;;;;;;;12.07;2.20;;;31.30;99.90;;;;;;5073041;28;20187;-69
2022/01/04 03:02:41;;;;;;;10.70;2.47;;;30.50;99.90;;;;;;5073078;28;20417;-68
2022/01/04 03:05:10;;;;;;;17.73;3.10;;;29.70;99.90;;;;;;5071995;28;20172;-69
2022/01/04 03:07:38;;;;;;;20.27;2.77;;;29.50;99.90;;;;;;5073029;28;20196;-68
2022/01/04 03:10:06;;;;;;;24.13;3.33;;;29.00;99.90;;;;;;5072746;28;20268;-68
2022/01/04 03:12:34;;;;;;;21.27;3.00;;;29.20;99.90;;;;;;5072824;28;20202;-68
2022/01/04 03:15:03;;;;;;;11.73;2.20;;;29.80;99.90;;;;;;5073188;28;20555;-69
2022/01/04 03:17:30;;;;;;;14.77;2.77;;;30.40;99.90;;;;;;5073142;28;20207;-69
2022/01/04 03:19:57;;;;;;;8.33;1.70;;;30.80;99.90;;;;;;5072894;28;20196;-69
2022/01/04 03:22:25;;;;;;;15.70;2.87;;;30.70;99.90;;;;;;5072841;28;20247;-68
2022/01/04 03:24:52;;;;;;;6.53;1.47;;;30.00;99.90;;;;;;5072875;28;20213;-69
2022/01/04 03:27:20;;;;;;;6.97;1.70;;;30.00;99.90;;;;;;5072598;28;20205;-68
2022/01/04 03:29:47;;;;;;;27.07;4.90;;;30.40;99.90;;;;;;5072448;28;20253;-69
2022/01/04 03:32:14;;;;;;;13.93;2.27;;;30.90;99.90;;;;;;5072797;28;20222;-68
2022/01/04 03:34:41;;;;;;;11.13;2.10;;;30.60;99.90;;;;;;5072513;28;20188;-68
2022/01/04 03:37:09;;;;;;;10.73;1.50;;;30.40;99.90;;;;;;5072950;28;20176;-68
2022/01/04 03:39:36;;;;;;;13.40;2.43;;;29.50;99.90;;;;;;5072150;28;20574;-68
2022/01/04 03:42:04;;;;;;;10.93;2.30;;;29.50;99.90;;;;;;5071042;28;20180;-68
2022/01/04 03:44:32;;;;;;;12.17;2.50;;;29.40;99.90;;;;;;5071052;28;20180;-67
2022/01/04 03:46:59;;;;;;;16.80;3.37;;;29.60;99.90;;;;;;5069953;28;20632;-68
2022/01/04 03:49:27;;;;;;;11.50;2.07;;;30.20;99.90;;;;;;5071264;28;20204;-68
2022/01/04 03:51:54;;;;;;;7.00;1.80;;;30.10;99.90;;;;;;5071969;28;20180;-67
2022/01/04 03:54:22;;;;;;;9.63;2.23;;;29.70;99.90;;;;;;5071410;28;20290;-68
2022/01/04 03:56:50;;;;;;;155.83;19.60;;;29.80;99.90;;;;;;5072200;28;20184;-68
2022/01/04 03:59:17;;;;;;;15.43;2.63;;;30.50;99.90;;;;;;5072243;28;20549;-68
2022/01/04 04:01:45;;;;;;;11.80;2.23;;;30.40;99.90;;;;;;5070789;28;20180;-68
2022/01/04 04:04:13;;;;;;;31.80;5.43;;;30.80;99.90;;;;;;5070710;28;20187;-68
2022/01/04 04:06:41;;;;;;;38.97;5.00;;;31.20;99.90;;;;;;5071077;28;20228;-67
2022/01/04 04:09:08;;;;;;;8.47;2.20;;;30.80;99.90;;;;;;5072060;28;20207;-68
2022/01/04 04:11:36;;;;;;;16.20;2.73;;;30.30;99.90;;;;;;5072225;28;20175;-67
2022/01/04 04:14:03;;;;;;;8.53;1.73;;;30.70;99.90;;;;;;5070831;28;20184;-66
2022/01/04 04:16:33;;;;;;;29.00;4.60;;;31.30;99.90;;;;;;5072008;28;20168;-67
2022/01/04 04:19:00;;;;;;;46.47;8.00;;;31.30;99.90;;;;;;5072048;28;20203;-67
2022/01/04 04:21:27;;;;;;;13.07;2.00;;;30.10;99.90;;;;;;5071971;28;20180;-67
2022/01/04 04:23:55;;;;;;;15.87;2.00;;;29.50;99.90;;;;;;5072083;28;20175;-67
2022/01/04 04:26:22;;;;;;;6.17;1.80;;;29.40;99.90;;;;;;5071770;28;20176;-68
2022/01/04 04:28:49;;;;;;;9.90;2.23;;;29.90;99.90;;;;;;5071966;28;20211;-68
2022/01/04 04:31:17;;;;;;;15.80;2.70;;;30.50;99.90;;;;;;5071918;28;20176;-67
2022/01/04 04:33:44;;;;;;;13.23;1.83;;;31.30;99.90;;;;;;5071881;28;20164;-68
2022/01/04 04:36:11;;;;;;;13.47;1.83;;;30.20;99.90;;;;;;5071943;28;20212;-68
2022/01/04 04:38:39;;;;;;;12.10;2.43;;;30.10;99.90;;;;;;5071773;28;20271;-67
2022/01/04 04:41:06;;;;;;;45.47;4.67;;;29.60;99.90;;;;;;5071650;28;20176;-68
2022/01/04 04:43:33;;;;;;;54.90;5.03;;;29.40;99.90;;;;;;5071494;28;20663;-67
2022/01/04 04:46:01;;;;;;;226.23;21.57;;;29.20;99.90;;;;;;5070803;28;20191;-68
2022/01/04 04:48:29;;;;;;;9.50;2.20;;;29.40;99.90;;;;;;5071360;28;20207;-68
2022/01/04 04:50:56;;;;;;;6.57;1.87;;;29.00;99.90;;;;;;5071538;28;20179;-68
2022/01/04 04:53:23;;;;;;;12.03;1.60;;;29.20;99.90;;;;;;5071132;28;20325;-68
2022/01/04 04:55:51;;;;;;;10.90;1.90;;;29.50;99.90;;;;;;5065215;28;20191;-67
2022/01/04 04:58:18;;;;;;;13.50;1.97;;;29.60;99.90;;;;;;5070146;28;20180;-67
2022/01/04 05:00:45;;;;;;;10.03;2.00;;;29.20;99.90;;;;;;5071713;28;20183;-68
2022/01/04 05:03:13;;;;;;;13.60;2.87;;;29.10;99.90;;;;;;5071247;28;20544;-68
2022/01/04 05:05:40;;;;;;;10.80;2.20;;;29.20;99.90;;;;;;5071411;28;20254;-68
2022/01/04 05:08:07;;;;;;;9.30;2.20;;;28.90;99.90;;;;;;5071224;28;20187;-68
2022/01/04 05:10:35;;;;;;;324.63;31.27;;;28.90;99.90;;;;;;5070637;28;20271;-68
2022/01/04 05:13:02;;;;;;;200.00;20.63;;;29.00;99.90;;;;;;5071334;28;20187;-68
2022/01/04 05:15:29;;;;;;;14.40;2.13;;;28.50;99.90;;;;;;5074853;28;20179;-68
2022/01/04 05:17:57;;;;;;;15.30;2.27;;;28.30;99.90;;;;;;5074024;28;20176;-69
2022/01/04 05:20:24;;;;;;;23.17;2.97;;;28.90;99.90;;;;;;5074062;28;20188;-68
2022/01/04 05:22:51;;;;;;;14.03;2.10;;;29.10;99.90;;;;;;5074760;28;20279;-69
2022/01/04 05:25:19;;;;;;;14.10;1.80;;;28.60;99.90;;;;;;5073577;28;20628;-70
2022/01/04 05:27:46;;;;;;;15.27;2.33;;;28.40;99.90;;;;;;5075066;28;20216;-69
2022/01/04 05:30:14;;;;;;;6.27;1.40;;;28.40;99.90;;;;;;5074683;28;20203;-69
2022/01/04 05:32:41;;;;;;;7.20;1.43;;;28.30;99.90;;;;;;5075153;28;20299;-68
2022/01/04 05:35:09;;;;;;;9.87;2.00;;;28.10;99.90;;;;;;5075086;28;20637;-68
2022/01/04 05:37:36;;;;;;;7.97;1.80;;;28.30;99.90;;;;;;5074494;28;20172;-68
2022/01/04 05:40:04;;;;;;;7.40;1.77;;;28.80;99.90;;;;;;5074353;28;20191;-68
2022/01/04 05:42:32;;;;;;;6.27;1.53;;;29.00;99.90;;;;;;5074164;28;20203;-67
2022/01/04 05:44:59;;;;;;;9.47;1.30;;;29.00;99.90;;;;;;5074058;28;20241;-67
2022/01/04 05:47:26;;;;;;;10.43;2.43;;;29.10;99.90;;;;;;5074240;28;20230;-67
2022/01/04 05:49:54;;;;;;;9.53;2.80;;;29.00;99.90;;;;;;5074078;28;20265;-69
2022/01/04 05:52:21;;;;;;;12.70;2.37;;;28.90;99.90;;;;;;5074410;28;20207;-69
2022/01/04 05:54:49;;;;;;;10.30;2.50;;;28.50;99.90;;;;;;5074337;28;20274;-69
2022/01/04 05:57:18;;;;;;;7.60;1.70;;;28.30;99.90;;;;;;5074250;28;20286;-68
2022/01/04 05:59:46;;;;;;;4.97;2.00;;;28.70;99.90;;;;;;5074428;28;20562;-69
2022/01/04 06:02:13;;;;;;;14.00;2.43;;;28.70;99.90;;;;;;5074662;28;20180;-69
2022/01/04 06:04:41;;;;;;;10.97;2.60;;;28.40;99.90;;;;;;5073889;28;20248;-67
2022/01/04 06:07:08;;;;;;;10.90;1.90;;;28.90;99.90;;;;;;5073849;28;20715;-67
2022/01/04 06:09:47;;;;;;;8.83;1.50;;;29.20;99.90;;;;;;5073358;28;20727;-68
2022/01/04 06:14:51;;;;;;;8.63;1.73;;;29.10;99.90;;;;;;5073846;28;20199;-68
2022/01/04 06:17:20;;;;;;;10.10;1.73;;;29.50;99.90;;;;;;5074299;28;20184;-67
2022/01/04 06:19:48;;;;;;;8.43;1.60;;;29.10;99.90;;;;;;5073880;28;20241;-67
2022/01/04 06:22:15;;;;;;;11.73;1.63;;;29.10;99.90;;;;;;5074171;28;20687;-69
2022/01/04 06:24:43;;;;;;;7.03;2.37;;;29.40;99.90;;;;;;5072842;28;20188;-68
2022/01/04 06:27:10;;;;;;;11.07;1.90;;;29.60;99.90;;;;;;5073777;28;20176;-68
2022/01/04 06:29:41;;;;;;;11.93;2.27;;;28.90;99.90;;;;;;5073805;28;20227;-68
2022/01/04 06:32:11;;;;;;;11.00;2.00;;;28.50;99.90;;;;;;5073752;28;20188;-68
2022/01/04 06:34:39;;;;;;;11.67;2.70;;;28.20;99.90;;;;;;5073550;28;20710;-68
2022/01/04 06:37:08;;;;;;;7.03;2.20;;;27.60;99.90;;;;;;5073941;28;20192;-68
2022/01/04 06:39:36;;;;;;;11.30;1.80;;;27.40;99.90;;;;;;5073800;28;20553;-68
2022/01/04 06:42:05;;;;;;;12.07;2.20;;;28.10;99.90;;;;;;5073795;28;20196;-68
2022/01/04 06:44:33;;;;;;;10.70;2.10;;;28.30;99.90;;;;;;5073370;28;20314;-68
2022/01/04 06:47:01;;;;;;;8.83;2.03;;;28.10;99.90;;;;;;5073592;28;20175;-69
2022/01/04 06:49:29;;;;;;;6.37;1.53;;;28.30;99.90;;;;;;5073417;28;20216;-68
2022/01/04 06:51:56;;;;;;;14.07;2.77;;;27.60;99.90;;;;;;5073066;28;20539;-68
2022/01/04 06:54:23;;;;;;;10.33;2.07;;;27.20;99.90;;;;;;5073019;28;20179;-68
2022/01/04 06:56:51;;;;;;;11.47;2.57;;;26.80;99.90;;;;;;5073390;28;20585;-68
2022/01/04 06:59:19;;;;;;;8.03;2.03;;;26.90;99.90;;;;;;5072264;28;20598;-69
2022/01/04 07:01:46;;;;;;;8.97;2.20;;;27.40;99.90;;;;;;5073186;28;20182;-68
2022/01/04 07:04:15;;;;;;;10.20;1.60;;;27.90;99.90;;;;;;5073034;28;20176;-68
2022/01/04 07:06:42;;;;;;;10.90;1.80;;;28.00;99.90;;;;;;5072941;28;20433;-68
2022/01/04 07:09:10;;;;;;;7.97;1.60;;;28.10;99.90;;;;;;5073060;28;20212;-68
2022/01/04 07:11:38;;;;;;;8.93;2.00;;;28.00;99.90;;;;;;5073235;28;20172;-69
2022/01/04 07:14:05;;;;;;;8.13;1.73;;;28.10;99.90;;;;;;5072478;28;20211;-68
2022/01/04 07:16:33;;;;;;;11.67;2.67;;;28.30;99.90;;;;;;5072989;28;20225;-67
2022/01/04 07:19:00;;;;;;;12.70;3.13;;;28.20;99.90;;;;;;5072842;28;20179;-67
2022/01/04 07:21:28;;;;;;;6.57;1.70;;;28.30;99.90;;;;;;5072982;28;20175;-67
2022/01/04 07:23:55;;;;;;;4.87;1.33;;;28.10;99.90;;;;;;5072910;28;20175;-68
2022/01/04 07:26:24;;;;;;;8.13;1.60;;;28.10;99.90;;;;;;5069376;28;20649;-68
2022/01/04 07:28:51;;;;;;;4.93;1.73;;;28.30;99.90;;;;;;5071467;28;20212;-67
2022/01/04 07:31:19;;;;;;;4.63;1.50;;;28.30;99.90;;;;;;5072580;28;20538;-67
2022/01/04 07:33:47;;;;;;;4.80;1.43;;;28.00;99.90;;;;;;5072867;28;20214;-68
2022/01/04 07:36:15;;;;;;;8.60;1.83;;;28.00;99.90;;;;;;5072119;28;20603;-67
2022/01/04 07:38:43;;;;;;;10.77;1.50;;;27.80;99.90;;;;;;5072789;28;20223;-67
2022/01/04 07:41:11;;;;;;;6.33;1.50;;;27.60;99.90;;;;;;5072461;28;20562;-68
2022/01/04 07:43:39;;;;;;;10.07;1.83;;;27.50;99.90;;;;;;5072644;28;20248;-68
2022/01/04 07:46:06;;;;;;;4.07;1.40;;;27.70;99.90;;;;;;5072618;28;20229;-67
2022/01/04 07:48:34;;;;;;;6.93;1.70;;;27.60;99.90;;;;;;5072080;28;20673;-68
2022/01/04 07:51:01;;;;;;;7.40;1.63;;;27.60;99.90;;;;;;5072178;28;20641;-68
2022/01/04 07:53:29;;;;;;;6.47;1.70;;;27.20;99.90;;;;;;5072442;28;20183;-67
2022/01/04 07:55:57;;;;;;;8.30;1.33;;;26.80;99.90;;;;;;5071077;28;20187;-68
2022/01/04 07:58:25;;;;;;;6.03;1.43;;;26.80;99.90;;;;;;5072327;28;20559;-68
2022/01/04 08:00:53;;;;;;;7.00;1.33;;;26.60;99.90;;;;;;5070655;28;20187;-68
2022/01/04 08:03:20;;;;;;;6.87;1.20;;;26.80;99.90;;;;;;5072269;28;20176;-68
2022/01/04 08:05:47;;;;;;;6.40;1.40;;;26.80;99.90;;;;;;5071961;28;20700;-68
2022/01/04 08:08:15;;;;;;;10.70;1.40;;;27.00;99.90;;;;;;5071768;28;20641;-66
2022/01/04 08:10:45;;;;;;;6.40;1.20;;;27.10;99.90;;;;;;5071689;28;20202;-67
2022/01/04 08:13:13;;;;;;;9.30;1.97;;;27.00;99.90;;;;;;5071934;28;20271;-67
2022/01/04 08:15:40;;;;;;;5.17;1.53;;;26.70;99.90;;;;;;5071904;28;20203;-67
2022/01/04 08:18:08;;;;;;;6.97;1.70;;;26.40;99.90;;;;;;5071297;28;20660;-66
2022/01/04 08:20:35;;;;;;;7.93;1.50;;;26.20;99.90;;;;;;5071720;28;20180;-68
2022/01/04 08:23:03;;;;;;;5.80;1.33;;;25.90;99.90;;;;;;5071986;28;20191;-67
2022/01/04 08:25:31;;;;;;;8.60;1.37;;;25.70;99.90;;;;;;5072055;28;20232;-68
2022/01/04 08:27:59;;;;;;;5.57;1.27;;;25.50;99.90;;;;;;5072035;28;20176;-71
2022/01/04 08:30:26;;;;;;;7.30;1.30;;;25.20;99.90;;;;;;5071450;28;20215;-71
2022/01/04 08:32:54;;;;;;;5.33;1.07;;;25.20;99.90;;;;;;5072001;28;20203;-71
2022/01/04 08:35:22;;;;;;;5.77;1.63;;;25.10;99.90;;;;;;5071741;28;20519;-70
2022/01/04 08:37:49;;;;;;;8.73;1.63;;;25.00;99.90;;;;;;5072662;28;20271;-71
2022/01/04 08:40:17;;;;;;;8.47;1.67;;;24.90;99.90;;;;;;5073072;28;20660;-70
2022/01/04 08:42:45;;;;;;;6.73;1.37;;;24.80;99.90;;;;;;5072594;28;20286;-70
2022/01/04 08:45:12;;;;;;;7.37;1.40;;;24.80;99.90;;;;;;5072710;28;20180;-70
2022/01/04 08:47:40;;;;;;;8.00;1.23;;;24.70;99.90;;;;;;5072759;28;20188;-70
2022/01/04 08:50:11;;;;;;;4.37;1.17;;;24.70;99.90;;;;;;5076092;28;20693;-70
2022/01/04 08:52:39;;;;;;;5.40;1.20;;;24.60;99.90;;;;;;5077300;28;20657;-71
2022/01/04 08:55:07;;;;;;;6.17;1.43;;;24.50;99.90;;;;;;5077286;28;20604;-71
2022/01/04 08:57:35;;;;;;;4.60;1.33;;;24.40;99.90;;;;;;5076806;28;20195;-70
2022/01/04 09:00:04;;;;;;;5.40;1.50;;;24.40;99.90;;;;;;5077136;28;20172;-71
2022/01/04 09:02:33;;;;;;;5.77;1.43;;;24.30;99.90;;;;;;5076534;28;20219;-71
2022/01/04 09:05:01;;;;;;;6.07;1.47;;;24.20;99.90;;;;;;5075547;28;20175;-71
2022/01/04 09:07:29;;;;;;;6.23;1.67;;;24.20;99.90;;;;;;5076418;28;20278;-71
2022/01/04 09:09:57;;;;;;;9.27;1.40;;;24.20;99.90;;;;;;5076628;28;20234;-71
2022/01/04 09:12:30;;;;;;;8.57;1.50;;;24.10;99.90;;;;;;5076531;28;20176;-71
2022/01/04 09:14:59;;;;;;;5.43;1.37;;;24.10;99.90;;;;;;5075308;28;20194;-70
2022/01/04 09:20:13;;;;;;;9.07;1.50;;;24.10;99.90;;;;;;5076825;28;20193;-69
2022/01/04 09:22:41;;;;;;;9.80;1.70;;;24.00;99.90;;;;;;5076695;28;20187;-70
2022/01/04 09:25:10;;;;;;;9.03;1.87;;;24.00;99.90;;;;;;5075954;28;20223;-70
2022/01/04 09:27:38;;;;;;;9.47;1.83;;;23.90;99.90;;;;;;5056327;28;20177;-69
2022/01/04 09:30:07;;;;;;;7.50;1.73;;;23.90;99.90;;;;;;5056267;28;20255;-70
2022/01/04 09:32:35;;;;;;;6.50;1.30;;;23.80;99.90;;;;;;5075982;28;20180;-70
2022/01/04 09:35:04;;;;;;;5.60;1.47;;;23.80;99.90;;;;;;5075800;28;20269;-69
2022/01/04 09:37:32;;;;;;;7.53;1.50;;;23.70;99.90;;;;;;5074210;28;20195;-70
2022/01/04 09:39:59;;;;;;;10.67;1.43;;;23.70;99.90;;;;;;5054930;28;20206;-70
2022/01/04 09:42:26;;;;;;;6.60;1.60;;;23.80;99.90;;;;;;5063038;28;20194;-71
2022/01/04 09:44:54;;;;;;;7.00;2.03;;;23.80;99.90;;;;;;5074670;28;20596;-71
2022/01/04 09:47:21;;;;;;;6.93;1.67;;;23.70;99.90;;;;;;5074471;28;20188;-69
2022/01/04 09:49:49;;;;;;;4.80;1.47;;;23.60;99.90;;;;;;5074537;28;20220;-70
2022/01/04 09:52:21;;;;;;;9.30;2.13;;;23.70;99.90;;;;;;5076177;28;20636;-71
2022/01/04 09:54:53;;;;;;;6.53;1.87;;;23.60;99.90;;;;;;5075037;28;20258;-70
2022/01/04 09:57:21;;;;;;;5.77;1.60;;;23.60;99.90;;;;;;5073288;28;20180;-70
2022/01/04 09:59:49;;;;;;;12.80;2.53;;;23.50;99.90;;;;;;5075893;28;20185;-70
2022/01/04 10:02:19;;;;;;;7.93;1.50;;;23.40;99.90;;;;;;5075478;28;20179;-70
2022/01/04 10:04:47;;;;;;;7.93;2.17;;;23.40;99.90;;;;;;5075465;28;20179;-70
2022/01/04 10:07:16;;;;;;;6.60;1.90;;;23.40;99.90;;;;;;5075492;28;20227;-70
2022/01/04 10:09:51;;;;;;;10.07;1.63;;;23.30;99.90;;;;;;5075468;28;20553;-70
2022/01/04 10:12:23;;;;;;;6.93;1.60;;;23.30;99.90;;;;;;5075770;28;20183;-70
2022/01/04 10:14:55;;;;;;;10.23;2.00;;;23.30;99.90;;;;;;5075682;28;20191;-70
2022/01/04 10:17:31;;;;;;;10.70;2.23;;;23.30;99.90;;;;;;5075464;28;20577;-70
2022/01/04 10:20:00;;;;;;;10.70;1.70;;;23.30;99.90;;;;;;5075813;28;20274;-71
2022/01/04 10:22:34;;;;;;;5.57;1.60;;;23.30;99.90;;;;;;5075554;28;20176;-70
2022/01/04 10:25:04;;;;;;;6.73;1.40;;;23.20;99.90;;;;;;5075280;28;20202;-71
2022/01/04 10:27:38;;;;;;;14.23;2.37;;;23.20;99.90;;;;;;5075241;28;20198;-69
2022/01/04 10:30:36;;;;;;;9.10;1.77;;;23.20;99.90;;;;;;5074075;28;20786;-70
2022/01/04 10:33:05;;;;;;;7.97;1.40;;;23.10;99.90;;;;;;5075170;28;20172;-70
2022/01/04 10:35:35;;;;;;;7.73;2.00;;;23.10;99.90;;;;;;5074903;28;20645;-70
2022/01/04 10:38:22;;;;;;;9.03;2.50;;;23.10;99.90;;;;;;5075442;28;20265;-70
2022/01/04 10:40:51;;;;;;;6.47;1.63;;;23.00;99.90;;;;;;5067992;28;20197;-70
2022/01/04 10:43:24;;;;;;;8.37;1.60;;;23.10;99.90;;;;;;5074938;28;20182;-70
2022/01/04 10:45:53;;;;;;;7.80;1.60;;;23.00;99.90;;;;;;5074506;28;20188;-71
2022/01/04 10:48:27;;;;;;;10.90;2.20;;;23.10;99.90;;;;;;5074884;28;20287;-71
2022/01/04 10:51:15;;;;;;;11.10;2.40;;;23.00;99.90;;;;;;5074927;28;20209;-70
2022/01/04 10:53:44;;;;;;;8.30;2.07;;;23.00;99.90;;;;;;5075005;28;20206;-70
2022/01/04 10:56:14;;;;;;;10.67;1.80;;;23.00;99.90;;;;;;5074734;28;20188;-70
2022/01/04 10:58:47;;;;;;;9.70;1.97;;;23.00;99.90;;;;;;5074839;28;20191;-70
2022/01/04 11:01:17;;;;;;;8.53;1.70;;;22.90;99.90;;;;;;5074336;28;20180;-71
2022/01/04 11:03:51;;;;;;;7.63;1.83;;;23.00;99.90;;;;;;5074959;28;20176;-71
2022/01/04 11:06:38;;;;;;;7.73;1.70;;;23.00;99.90;;;;;;5074079;28;20219;-69
2022/01/04 11:09:07;;;;;;;8.97;1.70;;;23.00;99.90;;;;;;5061483;28;20214;-70
2022/01/04 11:11:35;;;;;;;12.03;2.10;;;23.00;99.90;;;;;;5073519;28;20577;-71
2022/01/04 11:14:03;;;;;;;10.03;2.17;;;23.10;99.90;;;;;;5073913;28;20171;-71
2022/01/04 11:16:31;;;;;;;14.17;2.53;;;23.10;99.90;;;;;;5073678;28;20180;-70
2022/01/04 11:19:01;;;;;;;6.40;1.70;;;23.10;99.90;;;;;;5074580;28;20187;-71
2022/01/04 11:21:35;;;;;;;7.97;1.60;;;23.10;99.90;;;;;;5074484;28;20180;-71
2022/01/04 11:24:05;;;;;;;7.00;1.67;;;23.00;99.90;;;;;;5074620;28;20191;-70
2022/01/04 11:26:34;;;;;;;7.93;1.60;;;23.00;99.90;;;;;;5072697;28;20187;-70
2022/01/04 11:29:01;;;;;;;12.97;2.33;;;23.00;99.90;;;;;;5074079;28;20214;-70
2022/01/04 11:31:44;;;;;;;8.53;1.87;;;23.00;99.90;;;;;;5074288;28;20222;-71
2022/01/04 11:34:17;;;;;;;8.73;1.70;;;23.00;99.90;;;;;;5074033;28;20192;-71
2022/01/04 11:36:50;;;;;;;13.37;2.23;;;22.90;99.90;;;;;;5073844;28;20216;-71
2022/01/04 11:39:32;;;;;;;10.10;1.97;;;22.90;99.90;;;;;;5074375;28;20633;-71
2022/01/04 11:42:08;;;;;;;7.83;2.00;;;22.80;99.90;;;;;;5073568;28;20555;-70
2022/01/04 11:44:49;;;;;;;10.37;2.10;;;23.00;99.90;;;;;;5073949;28;20180;-70
2022/01/04 11:47:25;;;;;;;9.83;2.13;;;23.00;99.90;;;;;;5073727;28;20642;-72
2022/01/04 11:50:24;;;;;;;11.80;2.20;;;23.20;99.90;;;;;;5073720;28;20550;-71
2022/01/04 11:52:52;;;;;;;9.90;2.03;;;23.20;99.90;;;;;;5073579;28;20168;-71
2022/01/04 11:55:36;;;;;;;8.43;1.97;;;23.20;99.90;;;;;;5053978;28;20189;-71
2022/01/04 11:58:20;;;;;;;8.60;2.23;;;23.20;99.90;;;;;;5062633;28;20659;-71
2022/01/04 12:01:18;;;;;;;7.43;1.90;;;23.20;99.90;;;;;;5072613;28;20192;-70
2022/01/04 12:03:49;;;;;;;10.47;2.13;;;23.30;99.90;;;;;;5064825;28;20622;-71
2022/01/04 12:06:18;;;;;;;10.37;2.57;;;23.40;99.90;;;;;;5072079;28;20237;-71
2022/01/04 12:08:54;;;;;;;5.23;1.70;;;23.30;99.90;;;;;;5071944;28;20203;-70
2022/01/04 12:11:29;;;;;;;10.47;2.13;;;23.10;99.90;;;;;;5073161;28;20199;-71
2022/01/04 12:13:58;;;;;;;7.20;1.90;;;23.00;99.90;;;;;;5073585;28;20171;-71
2022/01/04 12:16:43;;;;;;;11.90;2.87;;;22.80;99.90;;;;;;5073433;28;20179;-71
2022/01/04 12:19:12;;;;;;;11.33;1.90;;;22.70;99.90;;;;;;5072698;28;20180;-71
2022/01/04 12:21:45;;;;;;;7.90;2.10;;;22.70;99.90;;;;;;5071849;28;20639;-72
2022/01/04 12:24:21;;;;;;;11.10;2.03;;;22.60;99.90;;;;;;5071215;28;20178;-72
2022/01/04 12:27:08;;;;;;;7.90;2.30;;;22.60;99.90;;;;;;5073358;28;20642;-71
2022/01/04 12:29:36;;;;;;;9.13;2.03;;;22.50;99.90;;;;;;5073162;28;20252;-71
2022/01/04 12:32:06;;;;;;;8.90;2.03;;;22.60;99.90;;;;;;5073069;28;20182;-70
2022/01/04 12:34:36;;;;;;;8.30;1.80;;;22.60;99.90;;;;;;5073359;28;20176;-70
2022/01/04 12:37:07;;;;;;;7.23;1.87;;;22.60;99.90;;;;;;5072831;28;20577;-70
2022/01/04 12:39:40;;;;;;;9.17;2.00;;;22.60;99.90;;;;;;5073547;28;20202;-72
2022/01/04 12:42:10;;;;;;;15.03;2.57;;;22.60;99.90;;;;;;5073003;28;20176;-71
2022/01/04 12:44:38;;;;;;;7.60;2.43;;;22.60;99.90;;;;;;5072098;28;20176;-71
2022/01/04 12:47:08;;;;;;;10.10;1.90;;;22.60;99.90;;;;;;5073412;28;20197;-71
2022/01/04 12:49:37;;;;;;;7.27;2.27;;;22.50;99.90;;;;;;5072672;28;20215;-71
2022/01/04 12:52:10;;;;;;;8.80;2.23;;;22.50;99.90;;;;;;5072838;28;20176;-71
2022/01/04 12:54:40;;;;;;;9.07;2.30;;;22.60;99.90;;;;;;5073071;28;20186;-71
2022/01/04 12:57:20;;;;;;;14.83;2.17;;;22.60;99.90;;;;;;5073192;28;20177;-71
2022/01/04 12:59:58;;;;;;;5.93;1.87;;;22.50;99.90;;;;;;5073188;28;20202;-71
2022/01/04 13:02:30;;;;;;;10.20;2.53;;;22.60;99.90;;;;;;5072935;28;20558;-71
2022/01/04 13:05:05;;;;;;;9.50;2.30;;;22.50;99.90;;;;;;5073382;28;20175;-71